sensor_id;sensor_type;location;lat;lon;timestamp;P1;P2;P0
46681;PMS5003;34101;53.430;-2.224;2023-07-31T00:01:33;1;1;
46681;PMS5003;34101;53.430;-2.224;2023-07-31T00:04:00;3;1;
46681;PMS5003;34101;53.430;-2.224;2023-07-31T00:06:28;2;1;
46681;PMS5003;34101;53.430;-2.224;2023-07-31T00:08:55;1;1;
46681;PMS5003;34101;53.430;-2.224;2023-07-31T00:11:23;0;0;
46681;PMS5003;34101;53.430;-2.224;2023-07-31T00:13:50;1;1;
46681;PMS5003;34101;53.430;-2.224;2023-07-31T00:16:19;0;0;
46681;PMS5003;34101;53.430;-2.224;2023-07-31T00:18:47;1;0;
46681;PMS5003;34101;53.430;-2.224;2023-07-31T00:21:16;2;0;
46681;PMS5003;34101;53.430;-2.224;2023-07-31T00:23:43;1;1;
46681;PMS5003;34101;53.430;-2.224;2023-07-31T00:26:11;2;2;
46681;PMS5003;34101;53.430;-2.224;2023-07-31T00:28:39;1;1;
46681;PMS5003;34101;53.430;-2.224;2023-07-31T00:31:06;1;1;
46681;PMS5003;34101;53.430;-2.224;2023-07-31T00:33:34;2;1;
46681;PMS5003;34101;53.430;-2.224;2023-07-31T00:36:02;2;1;
46681;PMS5003;34101;53.430;-2.224;2023-07-31T00:38:29;1;1;
46681;PMS5003;34101;53.430;-2.224;2023-07-31T00:40:56;2;2;
46681;PMS5003;34101;53.430;-2.224;2023-07-31T00:43:24;0;0;
46681;PMS5003;34101;53.430;-2.224;2023-07-31T00:45:52;1;1;
46681;PMS5003;34101;53.430;-2.224;2023-07-31T00:48:20;0;0;
46681;PMS5003;34101;53.430;-2.224;2023-07-31T00:50:48;2;1;
46681;PMS5003;34101;53.430;-2.224;2023-07-31T00:53:15;1;1;
46681;PMS5003;34101;53.430;-2.224;2023-07-31T00:55:43;0;0;
46681;PMS5003;34101;53.430;-2.224;2023-07-31T00:58:11;1;1;
46681;PMS5003;34101;53.430;-2.224;2023-07-31T01:00:39;0;0;
46681;PMS5003;34101;53.430;-2.224;2023-07-31T01:03:07;0;0;
46681;PMS5003;34101;53.430;-2.224;2023-07-31T01:05:36;0;0;
46681;PMS5003;34101;53.430;-2.224;2023-07-31T01:08:15;1;1;
46681;PMS5003;34101;53.430;-2.224;2023-07-31T01:10:51;3;1;
46681;PMS5003;34101;53.430;-2.224;2023-07-31T01:13:29;1;0;
46681;PMS5003;34101;53.430;-2.224;2023-07-31T01:15:56;1;1;
46681;PMS5003;34101;53.430;-2.224;2023-07-31T01:18:24;0;0;
46681;PMS5003;34101;53.430;-2.224;2023-07-31T01:20:54;0;0;
46681;PMS5003;34101;53.430;-2.224;2023-07-31T01:23:35;1;1;
46681;PMS5003;34101;53.430;-2.224;2023-07-31T01:26:18;1;1;
46681;PMS5003;34101;53.430;-2.224;2023-07-31T01:28:52;0;0;
46681;PMS5003;34101;53.430;-2.224;2023-07-31T01:31:29;0;0;
46681;PMS5003;34101;53.430;-2.224;2023-07-31T01:33:59;0;0;
46681;PMS5003;34101;53.430;-2.224;2023-07-31T01:36:28;1;1;
46681;PMS5003;34101;53.430;-2.224;2023-07-31T01:38:58;0;0;
46681;PMS5003;34101;53.430;-2.224;2023-07-31T01:41:26;1;1;
46681;PMS5003;34101;53.430;-2.224;2023-07-31T01:43:54;1;0;
46681;PMS5003;34101;53.430;-2.224;2023-07-31T01:46:21;2;0;
46681;PMS5003;34101;53.430;-2.224;2023-07-31T01:48:48;0;0;
46681;PMS5003;34101;53.430;-2.224;2023-07-31T01:51:16;0;0;
46681;PMS5003;34101;53.430;-2.224;2023-07-31T01:53:44;1;1;
46681;PMS5003;34101;53.430;-2.224;2023-07-31T01:56:11;0;0;
46681;PMS5003;34101;53.430;-2.224;2023-07-31T01:58:38;1;1;
46681;PMS5003;34101;53.430;-2.224;2023-07-31T02:01:06;1;1;
46681;PMS5003;34101;53.430;-2.224;2023-07-31T02:03:34;0;0;
46681;PMS5003;34101;53.430;-2.224;2023-07-31T02:06:01;0;0;
46681;PMS5003;34101;53.430;-2.224;2023-07-31T02:08:28;0;0;
46681;PMS5003;34101;53.430;-2.224;2023-07-31T02:10:56;0;0;
46681;PMS5003;34101;53.430;-2.224;2023-07-31T02:13:23;0;0;
46681;PMS5003;34101;53.430;-2.224;2023-07-31T02:15:51;0;0;
46681;PMS5003;34101;53.430;-2.224;2023-07-31T02:18:18;1;1;
46681;PMS5003;34101;53.430;-2.224;2023-07-31T02:20:49;0;0;
46681;PMS5003;34101;53.430;-2.224;2023-07-31T02:23:17;1;1;
46681;PMS5003;34101;53.430;-2.224;2023-07-31T02:25:45;0;0;
46681;PMS5003;34101;53.430;-2.224;2023-07-31T02:28:13;0;0;
46681;PMS5003;34101;53.430;-2.224;2023-07-31T02:30:43;1;1;
46681;PMS5003;34101;53.430;-2.224;2023-07-31T02:33:10;2;0;
46681;PMS5003;34101;53.430;-2.224;2023-07-31T02:35:38;0;0;
46681;PMS5003;34101;53.430;-2.224;2023-07-31T02:38:05;0;0;
46681;PMS5003;34101;53.430;-2.224;2023-07-31T02:40:32;0;0;
46681;PMS5003;34101;53.430;-2.224;2023-07-31T02:43:00;0;0;
46681;PMS5003;34101;53.430;-2.224;2023-07-31T02:45:27;0;0;
46681;PMS5003;34101;53.430;-2.224;2023-07-31T02:47:55;0;0;
46681;PMS5003;34101;53.430;-2.224;2023-07-31T02:50:22;0;0;
46681;PMS5003;34101;53.430;-2.224;2023-07-31T02:52:49;0;0;
46681;PMS5003;34101;53.430;-2.224;2023-07-31T02:55:17;0;0;
46681;PMS5003;34101;53.430;-2.224;2023-07-31T02:57:44;0;0;
46681;PMS5003;34101;53.430;-2.224;2023-07-31T03:00:23;0;0;
46681;PMS5003;34101;53.430;-2.224;2023-07-31T03:02:50;0;0;
46681;PMS5003;34101;53.430;-2.224;2023-07-31T03:05:18;0;0;
46681;PMS5003;34101;53.430;-2.224;2023-07-31T03:07:46;0;0;
46681;PMS5003;34101;53.430;-2.224;2023-07-31T03:10:14;0;0;
46681;PMS5003;34101;53.430;-2.224;2023-07-31T03:12:41;0;0;
46681;PMS5003;34101;53.430;-2.224;2023-07-31T03:15:08;0;0;
46681;PMS5003;34101;53.430;-2.224;2023-07-31T03:17:36;0;0;
46681;PMS5003;34101;53.430;-2.224;2023-07-31T03:20:04;1;1;
46681;PMS5003;34101;53.430;-2.224;2023-07-31T03:22:32;1;1;
46681;PMS5003;34101;53.430;-2.224;2023-07-31T03:25:00;1;1;
46681;PMS5003;34101;53.430;-2.224;2023-07-31T03:27:27;2;1;
46681;PMS5003;34101;53.430;-2.224;2023-07-31T03:29:54;0;0;
46681;PMS5003;34101;53.430;-2.224;2023-07-31T03:32:22;1;0;
46681;PMS5003;34101;53.430;-2.224;2023-07-31T03:34:49;1;1;
46681;PMS5003;34101;53.430;-2.224;2023-07-31T03:37:16;0;0;
46681;PMS5003;34101;53.430;-2.224;2023-07-31T03:39:44;0;0;
46681;PMS5003;34101;53.430;-2.224;2023-07-31T03:42:11;0;0;
46681;PMS5003;34101;53.430;-2.224;2023-07-31T03:44:39;1;1;
46681;PMS5003;34101;53.430;-2.224;2023-07-31T03:47:07;0;0;
46681;PMS5003;34101;53.430;-2.224;2023-07-31T03:49:34;1;1;
46681;PMS5003;34101;53.430;-2.224;2023-07-31T03:52:02;0;0;
46681;PMS5003;34101;53.430;-2.224;2023-07-31T03:54:30;0;0;
46681;PMS5003;34101;53.430;-2.224;2023-07-31T03:56:58;0;0;
46681;PMS5003;34101;53.430;-2.224;2023-07-31T03:59:25;0;0;
46681;PMS5003;34101;53.430;-2.224;2023-07-31T04:01:52;0;0;
46681;PMS5003;34101;53.430;-2.224;2023-07-31T04:04:20;1;1;
46681;PMS5003;34101;53.430;-2.224;2023-07-31T04:06:48;0;0;
46681;PMS5003;34101;53.430;-2.224;2023-07-31T04:09:15;1;1;
46681;PMS5003;34101;53.430;-2.224;2023-07-31T04:11:44;0;0;
46681;PMS5003;34101;53.430;-2.224;2023-07-31T04:14:11;2;0;
46681;PMS5003;34101;53.430;-2.224;2023-07-31T04:16:38;0;0;
46681;PMS5003;34101;53.430;-2.224;2023-07-31T04:19:06;1;1;
46681;PMS5003;34101;53.430;-2.224;2023-07-31T04:21:33;1;1;
46681;PMS5003;34101;53.430;-2.224;2023-07-31T04:24:01;0;0;
46681;PMS5003;34101;53.430;-2.224;2023-07-31T04:26:28;1;1;
46681;PMS5003;34101;53.430;-2.224;2023-07-31T04:28:55;1;1;
46681;PMS5003;34101;53.430;-2.224;2023-07-31T04:31:23;0;0;
46681;PMS5003;34101;53.430;-2.224;2023-07-31T04:33:50;0;0;
46681;PMS5003;34101;53.430;-2.224;2023-07-31T04:36:17;2;2;
46681;PMS5003;34101;53.430;-2.224;2023-07-31T04:38:45;1;1;
46681;PMS5003;34101;53.430;-2.224;2023-07-31T04:41:12;2;1;
46681;PMS5003;34101;53.430;-2.224;2023-07-31T04:43:40;1;1;
46681;PMS5003;34101;53.430;-2.224;2023-07-31T04:46:07;2;2;
46681;PMS5003;34101;53.430;-2.224;2023-07-31T04:48:35;2;1;
46681;PMS5003;34101;53.430;-2.224;2023-07-31T04:51:02;0;0;
46681;PMS5003;34101;53.430;-2.224;2023-07-31T04:53:29;3;2;
46681;PMS5003;34101;53.430;-2.224;2023-07-31T04:55:57;1;1;
46681;PMS5003;34101;53.430;-2.224;2023-07-31T04:58:24;1;1;
46681;PMS5003;34101;53.430;-2.224;2023-07-31T05:00:52;2;1;
46681;PMS5003;34101;53.430;-2.224;2023-07-31T05:03:20;0;0;
46681;PMS5003;34101;53.430;-2.224;2023-07-31T05:05:48;0;0;
46681;PMS5003;34101;53.430;-2.224;2023-07-31T05:08:16;1;1;
46681;PMS5003;34101;53.430;-2.224;2023-07-31T05:10:44;0;0;
46681;PMS5003;34101;53.430;-2.224;2023-07-31T05:13:11;0;0;
46681;PMS5003;34101;53.430;-2.224;2023-07-31T05:15:39;1;1;
46681;PMS5003;34101;53.430;-2.224;2023-07-31T05:18:08;1;1;
46681;PMS5003;34101;53.430;-2.224;2023-07-31T05:20:35;1;1;
46681;PMS5003;34101;53.430;-2.224;2023-07-31T05:23:02;2;2;
46681;PMS5003;34101;53.430;-2.224;2023-07-31T05:25:30;3;2;
46681;PMS5003;34101;53.430;-2.224;2023-07-31T05:27:58;2;1;
46681;PMS5003;34101;53.430;-2.224;2023-07-31T05:30:25;3;3;
46681;PMS5003;34101;53.430;-2.224;2023-07-31T05:32:53;1;1;
46681;PMS5003;34101;53.430;-2.224;2023-07-31T05:35:20;1;1;
46681;PMS5003;34101;53.430;-2.224;2023-07-31T05:37:49;1;1;
46681;PMS5003;34101;53.430;-2.224;2023-07-31T05:40:16;1;1;
46681;PMS5003;34101;53.430;-2.224;2023-07-31T05:42:43;2;2;
46681;PMS5003;34101;53.430;-2.224;2023-07-31T05:45:11;2;1;
46681;PMS5003;34101;53.430;-2.224;2023-07-31T05:47:38;1;1;
46681;PMS5003;34101;53.430;-2.224;2023-07-31T05:50:06;3;3;
46681;PMS5003;34101;53.430;-2.224;2023-07-31T05:52:34;6;3;
46681;PMS5003;34101;53.430;-2.224;2023-07-31T05:55:01;3;2;
46681;PMS5003;34101;53.430;-2.224;2023-07-31T05:57:29;4;2;
46681;PMS5003;34101;53.430;-2.224;2023-07-31T05:59:56;2;2;
46681;PMS5003;34101;53.430;-2.224;2023-07-31T06:02:23;1;1;
46681;PMS5003;34101;53.430;-2.224;2023-07-31T06:04:51;4;2;
46681;PMS5003;34101;53.430;-2.224;2023-07-31T06:07:18;3;3;
46681;PMS5003;34101;53.430;-2.224;2023-07-31T06:09:46;3;3;
46681;PMS5003;34101;53.430;-2.224;2023-07-31T06:12:13;4;2;
46681;PMS5003;34101;53.430;-2.224;2023-07-31T06:14:40;3;3;
46681;PMS5003;34101;53.430;-2.224;2023-07-31T06:17:08;3;2;
46681;PMS5003;34101;53.430;-2.224;2023-07-31T06:19:35;2;2;
46681;PMS5003;34101;53.430;-2.224;2023-07-31T06:22:02;3;3;
46681;PMS5003;34101;53.430;-2.224;2023-07-31T06:24:30;2;2;
46681;PMS5003;34101;53.430;-2.224;2023-07-31T06:26:57;2;2;
46681;PMS5003;34101;53.430;-2.224;2023-07-31T06:29:26;3;2;
46681;PMS5003;34101;53.430;-2.224;2023-07-31T06:31:53;3;3;
46681;PMS5003;34101;53.430;-2.224;2023-07-31T06:34:21;4;3;
46681;PMS5003;34101;53.430;-2.224;2023-07-31T06:36:48;4;4;
46681;PMS5003;34101;53.430;-2.224;2023-07-31T06:39:16;4;4;
46681;PMS5003;34101;53.430;-2.224;2023-07-31T06:41:43;6;5;
46681;PMS5003;34101;53.430;-2.224;2023-07-31T06:44:11;4;4;
46681;PMS5003;34101;53.430;-2.224;2023-07-31T06:46:38;3;3;
46681;PMS5003;34101;53.430;-2.224;2023-07-31T06:49:06;5;5;
46681;PMS5003;34101;53.430;-2.224;2023-07-31T06:51:33;4;4;
46681;PMS5003;34101;53.430;-2.224;2023-07-31T06:54:00;5;5;
46681;PMS5003;34101;53.430;-2.224;2023-07-31T06:56:28;6;6;
46681;PMS5003;34101;53.430;-2.224;2023-07-31T06:58:55;8;5;
46681;PMS5003;34101;53.430;-2.224;2023-07-31T07:01:22;5;5;
46681;PMS5003;34101;53.430;-2.224;2023-07-31T07:03:50;5;5;
46681;PMS5003;34101;53.430;-2.224;2023-07-31T07:06:17;7;7;
46681;PMS5003;34101;53.430;-2.224;2023-07-31T07:08:45;4;4;
46681;PMS5003;34101;53.430;-2.224;2023-07-31T07:11:12;6;5;
46681;PMS5003;34101;53.430;-2.224;2023-07-31T07:13:39;4;4;
46681;PMS5003;34101;53.430;-2.224;2023-07-31T07:16:07;8;4;
46681;PMS5003;34101;53.430;-2.224;2023-07-31T07:18:35;7;7;
46681;PMS5003;34101;53.430;-2.224;2023-07-31T07:21:02;5;5;
46681;PMS5003;34101;53.430;-2.224;2023-07-31T07:23:29;7;5;
46681;PMS5003;34101;53.430;-2.224;2023-07-31T07:25:57;8;5;
46681;PMS5003;34101;53.430;-2.224;2023-07-31T07:28:24;6;6;
46681;PMS5003;34101;53.430;-2.224;2023-07-31T07:30:52;6;5;
46681;PMS5003;34101;53.430;-2.224;2023-07-31T07:33:19;3;3;
46681;PMS5003;34101;53.430;-2.224;2023-07-31T07:35:47;7;6;
46681;PMS5003;34101;53.430;-2.224;2023-07-31T07:38:14;6;6;
46681;PMS5003;34101;53.430;-2.224;2023-07-31T07:40:42;5;3;
46681;PMS5003;34101;53.430;-2.224;2023-07-31T07:43:09;7;6;
46681;PMS5003;34101;53.430;-2.224;2023-07-31T07:45:36;5;4;
46681;PMS5003;34101;53.430;-2.224;2023-07-31T07:48:04;6;6;
46681;PMS5003;34101;53.430;-2.224;2023-07-31T07:50:31;6;6;
46681;PMS5003;34101;53.430;-2.224;2023-07-31T07:52:59;7;7;
46681;PMS5003;34101;53.430;-2.224;2023-07-31T07:55:26;6;5;
46681;PMS5003;34101;53.430;-2.224;2023-07-31T07:57:53;7;6;
46681;PMS5003;34101;53.430;-2.224;2023-07-31T08:00:21;4;4;
46681;PMS5003;34101;53.430;-2.224;2023-07-31T08:02:49;7;6;
46681;PMS5003;34101;53.430;-2.224;2023-07-31T08:05:16;7;6;
46681;PMS5003;34101;53.430;-2.224;2023-07-31T08:07:44;6;6;
46681;PMS5003;34101;53.430;-2.224;2023-07-31T08:10:11;5;5;
46681;PMS5003;34101;53.430;-2.224;2023-07-31T08:12:39;3;3;
46681;PMS5003;34101;53.430;-2.224;2023-07-31T08:15:06;5;4;
46681;PMS5003;34101;53.430;-2.224;2023-07-31T08:17:34;5;5;
46681;PMS5003;34101;53.430;-2.224;2023-07-31T08:20:01;4;4;
46681;PMS5003;34101;53.430;-2.224;2023-07-31T08:22:29;7;5;
46681;PMS5003;34101;53.430;-2.224;2023-07-31T08:24:56;5;4;
46681;PMS5003;34101;53.430;-2.224;2023-07-31T08:27:23;5;5;
46681;PMS5003;34101;53.430;-2.224;2023-07-31T08:29:51;6;6;
46681;PMS5003;34101;53.430;-2.224;2023-07-31T08:32:18;4;4;
46681;PMS5003;34101;53.430;-2.224;2023-07-31T08:34:46;5;5;
46681;PMS5003;34101;53.430;-2.224;2023-07-31T08:37:13;6;6;
46681;PMS5003;34101;53.430;-2.224;2023-07-31T08:39:40;8;6;
46681;PMS5003;34101;53.430;-2.224;2023-07-31T08:42:08;6;6;
46681;PMS5003;34101;53.430;-2.224;2023-07-31T08:44:35;7;7;
46681;PMS5003;34101;53.430;-2.224;2023-07-31T08:47:04;6;5;
46681;PMS5003;34101;53.430;-2.224;2023-07-31T08:49:32;10;5;
46681;PMS5003;34101;53.430;-2.224;2023-07-31T08:52:01;4;4;
46681;PMS5003;34101;53.430;-2.224;2023-07-31T08:54:29;4;4;
46681;PMS5003;34101;53.430;-2.224;2023-07-31T08:56:56;7;4;
46681;PMS5003;34101;53.430;-2.224;2023-07-31T08:59:25;6;6;
46681;PMS5003;34101;53.430;-2.224;2023-07-31T09:01:55;8;5;
46681;PMS5003;34101;53.430;-2.224;2023-07-31T09:04:30;7;6;
46681;PMS5003;34101;53.430;-2.224;2023-07-31T09:06:59;6;5;
46681;PMS5003;34101;53.430;-2.224;2023-07-31T09:09:29;5;5;
46681;PMS5003;34101;53.430;-2.224;2023-07-31T09:11:57;6;5;
46681;PMS5003;34101;53.430;-2.224;2023-07-31T09:14:25;6;6;
46681;PMS5003;34101;53.430;-2.224;2023-07-31T09:16:53;6;6;
46681;PMS5003;34101;53.430;-2.224;2023-07-31T09:19:25;11;8;
46681;PMS5003;34101;53.430;-2.224;2023-07-31T09:21:53;6;6;
46681;PMS5003;34101;53.430;-2.224;2023-07-31T09:24:25;10;8;
46681;PMS5003;34101;53.430;-2.224;2023-07-31T09:26:53;7;7;
46681;PMS5003;34101;53.430;-2.224;2023-07-31T09:29:22;6;6;
46681;PMS5003;34101;53.430;-2.224;2023-07-31T09:31:50;7;6;
46681;PMS5003;34101;53.430;-2.224;2023-07-31T09:34:18;6;6;
46681;PMS5003;34101;53.430;-2.224;2023-07-31T09:36:46;8;4;
46681;PMS5003;34101;53.430;-2.224;2023-07-31T09:39:15;9;7;
46681;PMS5003;34101;53.430;-2.224;2023-07-31T09:41:46;7;6;
46681;PMS5003;34101;53.430;-2.224;2023-07-31T09:44:21;8;5;
46681;PMS5003;34101;53.430;-2.224;2023-07-31T09:47:03;7;6;
46681;PMS5003;34101;53.430;-2.224;2023-07-31T09:49:31;4;4;
46681;PMS5003;34101;53.430;-2.224;2023-07-31T09:51:59;6;3;
46681;PMS5003;34101;53.430;-2.224;2023-07-31T09:54:26;4;4;
46681;PMS5003;34101;53.430;-2.224;2023-07-31T09:56:54;4;4;
46681;PMS5003;34101;53.430;-2.224;2023-07-31T09:59:24;4;4;
46681;PMS5003;34101;53.430;-2.224;2023-07-31T10:01:53;7;5;
46681;PMS5003;34101;53.430;-2.224;2023-07-31T10:04:25;4;4;
46681;PMS5003;34101;53.430;-2.224;2023-07-31T10:06:55;4;4;
46681;PMS5003;34101;53.430;-2.224;2023-07-31T10:09:26;3;3;
46681;PMS5003;34101;53.430;-2.224;2023-07-31T10:11:59;4;4;
46681;PMS5003;34101;53.430;-2.224;2023-07-31T10:14:30;5;2;
46681;PMS5003;34101;53.430;-2.224;2023-07-31T10:16:58;2;2;
46681;PMS5003;34101;53.430;-2.224;2023-07-31T10:19:25;3;3;
46681;PMS5003;34101;53.430;-2.224;2023-07-31T10:21:54;5;4;
46681;PMS5003;34101;53.430;-2.224;2023-07-31T10:24:22;4;4;
46681;PMS5003;34101;53.430;-2.224;2023-07-31T10:26:50;5;4;
46681;PMS5003;34101;53.430;-2.224;2023-07-31T10:29:20;4;4;
46681;PMS5003;34101;53.430;-2.224;2023-07-31T10:31:50;3;3;
46681;PMS5003;34101;53.430;-2.224;2023-07-31T10:34:19;4;3;
46681;PMS5003;34101;53.430;-2.224;2023-07-31T10:36:46;3;3;
46681;PMS5003;34101;53.430;-2.224;2023-07-31T10:39:48;3;3;
46681;PMS5003;34101;53.430;-2.224;2023-07-31T10:42:28;3;3;
46681;PMS5003;34101;53.430;-2.224;2023-07-31T10:44:57;4;4;
46681;PMS5003;34101;53.430;-2.224;2023-07-31T10:47:26;4;2;
46681;PMS5003;34101;53.430;-2.224;2023-07-31T10:49:55;2;2;
46681;PMS5003;34101;53.430;-2.224;2023-07-31T10:52:39;3;3;
46681;PMS5003;34101;53.430;-2.224;2023-07-31T10:55:16;4;2;
46681;PMS5003;34101;53.430;-2.224;2023-07-31T10:57:51;3;3;
46681;PMS5003;34101;53.430;-2.224;2023-07-31T11:00:20;2;2;
46681;PMS5003;34101;53.430;-2.224;2023-07-31T11:02:59;3;3;
46681;PMS5003;34101;53.430;-2.224;2023-07-31T11:06:00;3;3;
46681;PMS5003;34101;53.430;-2.224;2023-07-31T11:08:29;4;3;
46681;PMS5003;34101;53.430;-2.224;2023-07-31T11:11:06;3;3;
46681;PMS5003;34101;53.430;-2.224;2023-07-31T11:13:39;2;2;
46681;PMS5003;34101;53.430;-2.224;2023-07-31T11:16:08;3;3;
46681;PMS5003;34101;53.430;-2.224;2023-07-31T11:18:38;5;3;
46681;PMS5003;34101;53.430;-2.224;2023-07-31T11:21:06;3;3;
46681;PMS5003;34101;53.430;-2.224;2023-07-31T11:23:36;3;2;
46681;PMS5003;34101;53.430;-2.224;2023-07-31T11:26:04;0;0;
46681;PMS5003;34101;53.430;-2.224;2023-07-31T11:28:32;4;2;
46681;PMS5003;34101;53.430;-2.224;2023-07-31T11:31:01;2;2;
46681;PMS5003;34101;53.430;-2.224;2023-07-31T11:33:29;2;2;
46681;PMS5003;34101;53.430;-2.224;2023-07-31T11:35:57;3;3;
46681;PMS5003;34101;53.430;-2.224;2023-07-31T11:38:24;2;2;
46681;PMS5003;34101;53.430;-2.224;2023-07-31T11:40:53;4;4;
46681;PMS5003;34101;53.430;-2.224;2023-07-31T11:43:23;3;3;
46681;PMS5003;34101;53.430;-2.224;2023-07-31T11:45:51;3;3;
46681;PMS5003;34101;53.430;-2.224;2023-07-31T11:48:20;4;4;
46681;PMS5003;34101;53.430;-2.224;2023-07-31T11:50:50;4;4;
46681;PMS5003;34101;53.430;-2.224;2023-07-31T11:53:20;3;3;
46681;PMS5003;34101;53.430;-2.224;2023-07-31T11:55:51;3;3;
46681;PMS5003;34101;53.430;-2.224;2023-07-31T11:58:20;4;3;
46681;PMS5003;34101;53.430;-2.224;2023-07-31T12:00:51;4;4;
46681;PMS5003;34101;53.430;-2.224;2023-07-31T12:03:19;4;4;
46681;PMS5003;34101;53.430;-2.224;2023-07-31T12:05:48;4;4;
46681;PMS5003;34101;53.430;-2.224;2023-07-31T12:08:15;4;4;
46681;PMS5003;34101;53.430;-2.224;2023-07-31T12:10:42;3;3;
46681;PMS5003;34101;53.430;-2.224;2023-07-31T12:13:10;4;4;
46681;PMS5003;34101;53.430;-2.224;2023-07-31T12:15:46;7;5;
46681;PMS5003;34101;53.430;-2.224;2023-07-31T12:18:15;5;4;
46681;PMS5003;34101;53.430;-2.224;2023-07-31T12:20:46;7;6;
46681;PMS5003;34101;53.430;-2.224;2023-07-31T12:23:15;4;4;
46681;PMS5003;34101;53.430;-2.224;2023-07-31T12:25:44;8;6;
46681;PMS5003;34101;53.430;-2.224;2023-07-31T12:28:12;4;4;
46681;PMS5003;34101;53.430;-2.224;2023-07-31T12:30:39;5;5;
46681;PMS5003;34101;53.430;-2.224;2023-07-31T12:33:12;6;5;
46681;PMS5003;34101;53.430;-2.224;2023-07-31T12:35:42;5;5;
46681;PMS5003;34101;53.430;-2.224;2023-07-31T12:38:12;5;5;
46681;PMS5003;34101;53.430;-2.224;2023-07-31T12:40:41;6;6;
46681;PMS5003;34101;53.430;-2.224;2023-07-31T12:43:08;4;4;
46681;PMS5003;34101;53.430;-2.224;2023-07-31T12:45:35;6;6;
46681;PMS5003;34101;53.430;-2.224;2023-07-31T12:48:03;7;7;
46681;PMS5003;34101;53.430;-2.224;2023-07-31T12:50:31;8;7;
46681;PMS5003;34101;53.430;-2.224;2023-07-31T12:52:58;7;7;
46681;PMS5003;34101;53.430;-2.224;2023-07-31T12:55:25;6;6;
46681;PMS5003;34101;53.430;-2.224;2023-07-31T12:57:53;8;5;
46681;PMS5003;34101;53.430;-2.224;2023-07-31T13:00:22;7;6;
46681;PMS5003;34101;53.430;-2.224;2023-07-31T13:02:50;4;4;
46681;PMS5003;34101;53.430;-2.224;2023-07-31T13:05:17;6;6;
46681;PMS5003;34101;53.430;-2.224;2023-07-31T13:07:44;5;5;
46681;PMS5003;34101;53.430;-2.224;2023-07-31T13:10:11;5;5;
46681;PMS5003;34101;53.430;-2.224;2023-07-31T13:12:39;8;7;
46681;PMS5003;34101;53.430;-2.224;2023-07-31T13:15:07;8;6;
46681;PMS5003;34101;53.430;-2.224;2023-07-31T13:17:34;4;4;
46681;PMS5003;34101;53.430;-2.224;2023-07-31T13:20:03;8;6;
46681;PMS5003;34101;53.430;-2.224;2023-07-31T13:22:31;6;6;
46681;PMS5003;34101;53.430;-2.224;2023-07-31T13:24:58;7;7;
46681;PMS5003;34101;53.430;-2.224;2023-07-31T13:27:26;5;5;
46681;PMS5003;34101;53.430;-2.224;2023-07-31T13:29:53;5;5;
46681;PMS5003;34101;53.430;-2.224;2023-07-31T13:32:21;9;5;
46681;PMS5003;34101;53.430;-2.224;2023-07-31T13:34:49;5;5;
46681;PMS5003;34101;53.430;-2.224;2023-07-31T13:37:16;6;6;
46681;PMS5003;34101;53.430;-2.224;2023-07-31T13:39:43;5;5;
46681;PMS5003;34101;53.430;-2.224;2023-07-31T13:42:11;6;6;
46681;PMS5003;34101;53.430;-2.224;2023-07-31T13:44:38;8;7;
46681;PMS5003;34101;53.430;-2.224;2023-07-31T13:47:07;8;6;
46681;PMS5003;34101;53.430;-2.224;2023-07-31T13:49:35;10;7;
46681;PMS5003;34101;53.430;-2.224;2023-07-31T13:52:03;6;5;
46681;PMS5003;34101;53.430;-2.224;2023-07-31T13:54:31;7;6;
46681;PMS5003;34101;53.430;-2.224;2023-07-31T13:56:59;8;7;
46681;PMS5003;34101;53.430;-2.224;2023-07-31T13:59:26;7;6;
46681;PMS5003;34101;53.430;-2.224;2023-07-31T14:01:53;6;6;
46681;PMS5003;34101;53.430;-2.224;2023-07-31T14:04:21;8;7;
46681;PMS5003;34101;53.430;-2.224;2023-07-31T14:06:49;6;6;
46681;PMS5003;34101;53.430;-2.224;2023-07-31T14:09:16;7;6;
46681;PMS5003;34101;53.430;-2.224;2023-07-31T14:11:44;7;6;
46681;PMS5003;34101;53.430;-2.224;2023-07-31T14:14:11;5;5;
46681;PMS5003;34101;53.430;-2.224;2023-07-31T14:16:39;8;8;
46681;PMS5003;34101;53.430;-2.224;2023-07-31T14:19:06;7;6;
46681;PMS5003;34101;53.430;-2.224;2023-07-31T14:21:34;6;5;
46681;PMS5003;34101;53.430;-2.224;2023-07-31T14:24:02;8;8;
46681;PMS5003;34101;53.430;-2.224;2023-07-31T14:26:30;6;6;
46681;PMS5003;34101;53.430;-2.224;2023-07-31T14:28:58;7;5;
46681;PMS5003;34101;53.430;-2.224;2023-07-31T14:31:25;8;6;
46681;PMS5003;34101;53.430;-2.224;2023-07-31T14:33:52;2;2;
46681;PMS5003;34101;53.430;-2.224;2023-07-31T14:36:20;2;2;
46681;PMS5003;34101;53.430;-2.224;2023-07-31T14:38:48;1;1;
46681;PMS5003;34101;53.430;-2.224;2023-07-31T14:41:15;2;2;
46681;PMS5003;34101;53.430;-2.224;2023-07-31T14:43:43;2;2;
46681;PMS5003;34101;53.430;-2.224;2023-07-31T14:46:10;2;2;
46681;PMS5003;34101;53.430;-2.224;2023-07-31T14:48:37;2;2;
46681;PMS5003;34101;53.430;-2.224;2023-07-31T14:51:05;2;2;
46681;PMS5003;34101;53.430;-2.224;2023-07-31T14:53:33;2;1;
46681;PMS5003;34101;53.430;-2.224;2023-07-31T14:56:00;0;0;
46681;PMS5003;34101;53.430;-2.224;2023-07-31T14:58:27;0;0;
46681;PMS5003;34101;53.430;-2.224;2023-07-31T15:00:55;3;2;
46681;PMS5003;34101;53.430;-2.224;2023-07-31T15:03:22;2;1;
46681;PMS5003;34101;53.430;-2.224;2023-07-31T15:05:49;3;1;
46681;PMS5003;34101;53.430;-2.224;2023-07-31T15:08:17;3;2;
46681;PMS5003;34101;53.430;-2.224;2023-07-31T15:10:44;2;2;
46681;PMS5003;34101;53.430;-2.224;2023-07-31T15:13:12;2;2;
46681;PMS5003;34101;53.430;-2.224;2023-07-31T15:15:39;2;2;
46681;PMS5003;34101;53.430;-2.224;2023-07-31T15:18:06;0;0;
46681;PMS5003;34101;53.430;-2.224;2023-07-31T15:20:34;4;2;
46681;PMS5003;34101;53.430;-2.224;2023-07-31T15:23:01;0;0;
46681;PMS5003;34101;53.430;-2.224;2023-07-31T15:25:29;1;1;
46681;PMS5003;34101;53.430;-2.224;2023-07-31T15:27:57;3;3;
46681;PMS5003;34101;53.430;-2.224;2023-07-31T15:30:24;5;4;
46681;PMS5003;34101;53.430;-2.224;2023-07-31T15:32:52;6;6;
46681;PMS5003;34101;53.430;-2.224;2023-07-31T15:35:19;10;10;
46681;PMS5003;34101;53.430;-2.224;2023-07-31T15:37:48;5;2;
46681;PMS5003;34101;53.430;-2.224;2023-07-31T15:40:15;3;3;
46681;PMS5003;34101;53.430;-2.224;2023-07-31T15:42:42;6;6;
46681;PMS5003;34101;53.430;-2.224;2023-07-31T15:45:10;6;5;
46681;PMS5003;34101;53.430;-2.224;2023-07-31T15:47:37;2;2;
46681;PMS5003;34101;53.430;-2.224;2023-07-31T15:50:05;4;2;
46681;PMS5003;34101;53.430;-2.224;2023-07-31T15:52:33;3;3;
46681;PMS5003;34101;53.430;-2.224;2023-07-31T15:55:00;1;1;
46681;PMS5003;34101;53.430;-2.224;2023-07-31T15:57:28;3;2;
46681;PMS5003;34101;53.430;-2.224;2023-07-31T15:59:55;2;2;
46681;PMS5003;34101;53.430;-2.224;2023-07-31T16:02:22;2;2;
46681;PMS5003;34101;53.430;-2.224;2023-07-31T16:04:50;2;2;
46681;PMS5003;34101;53.430;-2.224;2023-07-31T16:07:17;2;2;
46681;PMS5003;34101;53.430;-2.224;2023-07-31T16:09:44;2;2;
46681;PMS5003;34101;53.430;-2.224;2023-07-31T16:12:12;2;2;
46681;PMS5003;34101;53.430;-2.224;2023-07-31T16:14:39;2;2;
46681;PMS5003;34101;53.430;-2.224;2023-07-31T16:17:07;4;2;
46681;PMS5003;34101;53.430;-2.224;2023-07-31T16:19:34;4;3;
46681;PMS5003;34101;53.430;-2.224;2023-07-31T16:22:02;1;1;
46681;PMS5003;34101;53.430;-2.224;2023-07-31T16:24:30;2;2;
46681;PMS5003;34101;53.430;-2.224;2023-07-31T16:26:58;2;2;
46681;PMS5003;34101;53.430;-2.224;2023-07-31T16:29:25;2;2;
46681;PMS5003;34101;53.430;-2.224;2023-07-31T16:31:53;2;2;
46681;PMS5003;34101;53.430;-2.224;2023-07-31T16:34:21;2;1;
46681;PMS5003;34101;53.430;-2.224;2023-07-31T16:36:48;6;3;
46681;PMS5003;34101;53.430;-2.224;2023-07-31T16:39:16;4;4;
46681;PMS5003;34101;53.430;-2.224;2023-07-31T16:41:43;3;3;